Time;durP1;ratioP1;P1;durP2;ratioP2;P2;SDS_P1;SDS_P2;PMS_P1;PMS_P2;Temp;Humidity;BMP_temperature;BMP_pressure;BME280_temperature;BME280_humidity;BME280_pressure;Samples;Min_cycle;Max_cycle;Signal;HPM_P1;HPM_P2
2022/09/03 00:01:36;;;;;;;2.53;1.60;;;24.70;38.50;;;;;;20997513;28;20512;-59
2022/09/03 00:11:41;;;;;;;2.85;2.10;;;24.40;39.20;;;;;;20997830;28;20090;-58
2022/09/03 00:21:45;;;;;;;3.28;1.35;;;24.50;39.00;;;;;;20996574;28;20052;-58
2022/09/03 00:31:55;;;;;;;3.95;1.70;;;24.50;38.90;;;;;;20996508;28;20160;-59
2022/09/03 00:42:16;;;;;;;2.60;1.73;;;24.50;38.70;;;;;;20995725;28;20389;-61
2022/09/03 00:52:40;;;;;;;2.47;1.67;;;24.50;38.60;;;;;;20995326;28;20063;-59
2022/09/03 01:03:07;;;;;;;2.30;1.30;;;24.40;38.90;;;;;;20995684;28;20070;-59
2022/09/03 01:13:47;;;;;;;5.30;1.55;;;24.30;38.70;;;;;;20986840;28;20399;-59
2022/09/03 01:24:32;;;;;;;3.42;1.63;;;24.00;39.40;;;;;;20754965;28;20054;-57
2022/09/03 01:34:49;;;;;;;2.60;1.40;;;24.10;39.20;;;;;;20354209;29;20060;-59
2022/09/03 01:45:11;;;;;;;3.45;1.67;;;24.10;39.10;;;;;;20354426;28;20056;-60
2022/09/03 01:55:40;;;;;;;5.43;3.63;;;23.90;39.40;;;;;;20502387;28;20521;-57
2022/09/03 02:05:42;;;;;;;3.63;1.48;;;24.00;39.30;;;;;;20713320;28;20056;-58
2022/09/03 02:15:48;;;;;;;2.28;1.10;;;23.90;39.60;;;;;;21007519;28;20095;-57
2022/09/03 02:25:56;;;;;;;3.10;1.70;;;23.90;39.50;;;;;;21005594;28;20044;-59
2022/09/03 02:36:02;;;;;;;2.20;1.45;;;23.80;39.70;;;;;;21006296;28;20059;-58
2022/09/03 02:46:08;;;;;;;4.18;1.65;;;23.60;40.00;;;;;;21004488;28;20135;-58
2022/09/03 02:56:11;;;;;;;3.05;1.60;;;23.50;40.30;;;;;;21004345;28;20052;-57
2022/09/03 03:06:14;;;;;;;3.53;1.55;;;23.30;40.90;;;;;;21002766;28;20049;-57
2022/09/03 03:16:16;;;;;;;;;;;23.10;41.20;;;;;;21003284;28;20095;-59
2022/09/03 03:26:20;;;;;;;2.47;1.43;;;22.90;41.60;;;;;;21001459;28;19921;-58
2022/09/03 03:36:24;;;;;;;1.92;1.25;;;23.10;41.50;;;;;;21000284;28;20497;-58
2022/09/03 03:46:30;;;;;;;2.85;1.48;;;23.10;41.50;;;;;;20999583;28;20052;-57
2022/09/03 03:56:33;;;;;;;2.78;1.67;;;22.90;41.80;;;;;;20998889;28;20137;-58
2022/09/03 04:06:35;;;;;;;3.25;1.63;;;22.90;41.70;;;;;;20997716;28;20056;-58
2022/09/03 04:16:37;;;;;;;1.83;1.30;;;;;;;;;;20997426;28;20484;-57
2022/09/03 04:26:40;;;;;;;4.43;1.60;;;22.60;42.40;;;;;;20997862;28;20125;-59
2022/09/03 04:36:42;;;;;;;6.17;2.23;;;22.40;42.90;;;;;;20996695;28;20074;-58
2022/09/03 04:46:46;;;;;;;5.50;1.70;;;22.20;42.90;;;;;;20996268;28;20443;-58
2022/09/03 04:56:48;;;;;;;7.32;2.15;;;22.30;42.80;;;;;;20995673;28;20508;-57
2022/09/03 05:06:50;;;;;;;4.47;2.35;;;22.40;42.80;;;;;;20995108;28;20053;-61
2022/09/03 05:16:51;;;;;;;3.60;1.50;;;22.40;43.00;;;;;;20995553;28;20084;-60
2022/09/03 05:26:54;;;;;;;2.83;1.38;;;22.40;43.30;;;;;;20995118;28;20048;-58
2022/09/03 05:36:57;;;;;;;1.87;1.30;;;22.20;43.80;;;;;;20995054;28;20067;-58
2022/09/03 05:46:59;;;;;;;3.72;1.42;;;22.20;44.40;;;;;;20994105;28;20111;-60
2022/09/03 05:57:00;;;;;;;2.95;1.48;;;22.10;44.60;;;;;;20996237;28;20056;-58
2022/09/03 06:07:02;;;;;;;3.85;1.95;;;21.90;44.90;;;;;;21007970;28;20128;-58
2022/09/03 06:17:04;;;;;;;6.13;1.95;;;21.80;45.30;;;;;;21007278;28;20602;-58
2022/09/03 06:27:06;;;;;;;4.30;1.70;;;21.90;45.00;;;;;;21005844;28;20515;-58
2022/09/03 06:37:08;;;;;;;2.40;1.50;;;21.90;45.00;;;;;;21005605;28;20060;-58
2022/09/03 06:47:09;;;;;;;3.55;1.38;;;21.90;45.90;;;;;;21005685;28;20508;-58
2022/09/03 06:57:11;;;;;;;4.32;1.73;;;22.10;46.00;;;;;;21003696;28;20128;-59
2022/09/03 07:07:12;;;;;;;5.07;1.65;;;22.20;45.70;;;;;;21002766;28;20493;-58
2022/09/03 07:17:14;;;;;;;5.38;1.60;;;22.40;45.60;;;;;;21002153;28;20052;-60
2022/09/03 07:27:15;;;;;;;6.25;2.30;;;22.40;45.70;;;;;;21001307;28;20504;-59
2022/09/03 07:37:18;;;;;;;3.90;2.10;;;22.70;45.40;;;;;;21000205;28;20088;-58
2022/09/03 07:47:19;;;;;;;5.33;1.90;;;23.00;44.50;;;;;;20999786;28;20044;-61
2022/09/03 07:57:21;;;;;;;3.97;1.50;;;23.20;43.80;;;;;;20998997;28;20336;-60
2022/09/03 08:07:23;;;;;;;7.10;6.47;;;23.50;42.50;;;;;;20998361;28;20503;-59
2022/09/03 08:17:24;;;;;;;2.97;1.60;;;23.80;41.80;;;;;;20997205;28;20048;-60
2022/09/03 08:27:26;;;;;;;3.15;1.33;;;24.20;41.10;;;;;;20996753;28;20048;-58
2022/09/03 08:37:29;;;;;;;2.17;1.63;;;24.30;41.50;;;;;;20996880;28;20053;-59
2022/09/03 08:47:53;;;;;;;4.07;2.15;;;24.30;41.50;;;;;;20996447;28;20066;-59
2022/09/03 08:58:07;;;;;;;2.50;1.40;;;24.60;41.50;;;;;;20995908;28;20048;-58
2022/09/03 09:08:26;;;;;;;5.63;1.90;;;25.00;41.00;;;;;;20995140;28;20052;-59
2022/09/03 09:18:36;;;;;;;2.90;1.70;;;25.20;40.40;;;;;;20995153;28;20205;-58
2022/09/03 09:28:38;;;;;;;2.03;1.70;;;25.20;40.20;;;;;;20995629;28;20044;-59
2022/09/03 09:38:41;;;;;;;4.05;1.88;;;25.50;40.10;;;;;;21009752;28;20064;-59
2022/09/03 09:48:55;;;;;;;2.97;1.80;;;25.60;39.90;;;;;;21011476;28;20049;-59
2022/09/03 09:59:08;;;;;;;3.13;1.85;;;25.70;39.30;;;;;;21008543;28;20053;-59
2022/09/03 10:09:16;;;;;;;3.15;1.88;;;25.70;39.40;;;;;;21009300;28;20501;-59
2022/09/03 10:19:29;;;;;;;4.75;1.77;;;25.90;38.30;;;;;;21007814;28;20063;-58
2022/09/03 10:29:31;;;;;;;10.00;4.47;;;25.90;38.70;;;;;;21007668;28;20127;-59
2022/09/03 10:40:03;;;;;;;8.02;1.75;;;25.80;38.50;;;;;;21006345;28;20086;-59
2022/09/03 10:50:18;;;;;;;3.20;1.60;;;26.00;38.50;;;;;;21006106;28;20477;-58
2022/09/03 11:00:21;;;;;;;3.33;1.60;;;26.20;38.30;;;;;;21004845;28;20086;-59
2022/09/03 11:10:39;;;;;;;3.58;1.70;;;26.50;36.30;;;;;;21003552;28;20481;-57
2022/09/03 11:20:42;;;;;;;2.83;1.58;;;26.60;35.90;;;;;;21002647;28;20075;-60
2022/09/03 11:31:04;;;;;;;2.83;1.73;;;26.90;36.00;;;;;;21001603;28;20484;-57
2022/09/03 11:41:27;;;;;;;2.00;1.30;;;26.90;35.90;;;;;;20998834;28;20061;-60
2022/09/03 11:51:34;;;;;;;4.43;1.52;;;27.10;34.80;;;;;;20998333;28;20094;-58
2022/09/03 12:01:45;;;;;;;4.53;1.90;;;27.00;33.90;;;;;;20996337;28;20052;-59
2022/09/03 12:11:59;;;;;;;3.40;1.30;;;27.10;33.90;;;;;;20998060;28;20477;-58
2022/09/03 12:22:03;;;;;;;2.30;1.50;;;27.20;34.70;;;;;;20997547;28;20489;-58
2022/09/03 12:32:09;;;;;;;3.08;1.30;;;27.40;33.90;;;;;;20996967;28;20084;-59
2022/09/03 12:42:18;;;;;;;4.10;1.92;;;27.80;33.50;;;;;;20995717;28;20060;-59
2022/09/03 12:52:28;;;;;;;6.57;1.20;;;28.10;32.80;;;;;;20995687;28;20095;-58
2022/09/03 13:02:54;;;;;;;2.20;1.20;;;28.20;31.90;;;;;;20995143;28;20049;-58
2022/09/03 13:13:01;;;;;;;3.15;1.60;;;28.30;31.20;;;;;;21011213;28;20400;-59
2022/09/03 13:23:12;;;;;;;2.17;1.20;;;28.30;31.70;;;;;;20993867;28;20059;-58
2022/09/03 13:33:23;;;;;;;1.90;1.30;;;28.20;31.10;;;;;;21010230;28;20048;-58
2022/09/03 13:43:25;;;;;;;;;;;28.40;30.50;;;;;;21009947;28;20056;-60
2022/09/03 13:53:56;;;;;;;2.77;1.47;;;28.40;30.00;;;;;;21008927;28;19927;-58
2022/09/03 14:03:59;;;;;;;;;;;28.60;30.50;;;;;;21008867;28;20391;-59
2022/09/03 14:14:38;;;;;;;3.25;1.38;;;28.60;30.80;;;;;;21008447;28;19931;-59
2022/09/03 14:24:50;;;;;;;2.78;1.20;;;28.80;29.30;;;;;;21005207;28;20052;-60
2022/09/03 14:35:33;;;;;;;2.60;2.33;;;28.70;30.40;;;;;;21004952;28;20048;-60
2022/09/03 14:46:07;;;;;;;2.83;1.23;;;28.70;29.40;;;;;;20748738;28;20105;-58
2022/09/03 14:56:25;;;;;;;2.28;1.70;;;28.80;30.10;;;;;;20349226;29;20087;-59
2022/09/03 15:06:57;;;;;;;3.17;2.45;;;28.80;28.80;;;;;;20348670;29;20072;-59
2022/09/03 15:17:20;;;;;;;2.35;1.75;;;29.10;29.20;;;;;;20424535;28;20058;-58
2022/09/03 15:27:40;;;;;;;4.18;1.20;;;28.90;29.00;;;;;;20718360;28;20044;-59
2022/09/03 15:37:57;;;;;;;1.58;1.00;;;29.00;27.20;;;;;;20999200;28;20088;-60
2022/09/03 15:48:38;;;;;;;1.83;0.95;;;28.90;27.00;;;;;;20999392;28;20045;-59
2022/09/03 15:59:06;;;;;;;1.63;0.80;;;29.00;25.80;;;;;;20744539;28;20396;-58
2022/09/03 16:09:35;;;;;;;1.75;0.98;;;29.00;25.90;;;;;;20743014;28;20042;-58
2022/09/03 16:20:17;;;;;;;2.53;1.00;;;29.10;26.40;;;;;;20742733;28;20057;-58
2022/09/03 16:30:51;;;;;;;2.53;0.85;;;29.10;25.00;;;;;;20869163;28;20084;-58
2022/09/03 16:41:03;;;;;;;1.58;0.93;;;29.00;25.30;;;;;;20739435;28;20060;-59
2022/09/03 16:51:31;;;;;;;1.40;0.90;;;28.90;26.10;;;;;;20740272;28;20119;-59
2022/09/03 17:01:38;;;;;;;1.77;1.17;;;28.90;25.40;;;;;;20739117;28;20061;-58
2022/09/03 17:11:54;;;;;;;1.83;1.20;;;28.60;26.90;;;;;;20810497;28;20052;-59
2022/09/03 17:22:36;;;;;;;1.40;1.00;;;28.60;26.70;;;;;;20995476;28;20078;-58
2022/09/03 17:33:06;;;;;;;3.58;1.25;;;28.60;27.40;;;;;;20994339;28;20124;-60
2022/09/03 17:43:49;;;;;;;3.08;1.20;;;28.40;27.40;;;;;;20993760;28;20103;-60
2022/09/03 17:54:05;;;;;;;3.28;1.30;;;28.30;29.00;;;;;;20999628;28;20048;-59
2022/09/03 18:04:32;;;;;;;3.13;2.45;;;28.10;30.00;;;;;;21008575;28;20048;-58
2022/09/03 18:14:50;;;;;;;3.28;1.52;;;28.00;29.20;;;;;;21008850;28;20493;-58
2022/09/03 20:10:36;;;;;;;5.68;2.50;;;26.50;32.20;;;;;;20998741;28;20114;-58
2022/09/03 20:20:46;;;;;;;6.40;3.20;;;26.50;31.90;;;;;;20997737;28;20057;-56
2022/09/03 20:31:08;;;;;;;4.57;2.22;;;26.40;32.00;;;;;;20997372;28;20052;-60
2022/09/03 20:41:33;;;;;;;5.20;2.88;;;26.30;32.00;;;;;;20996433;28;20056;-59
2022/09/03 20:51:54;;;;;;;5.93;4.78;;;26.20;31.80;;;;;;20996755;28;20106;-59
2022/09/03 21:02:09;;;;;;;3.93;2.90;;;26.20;31.90;;;;;;20995932;28;20053;-60
2022/09/03 21:12:42;;;;;;;5.88;2.47;;;26.10;32.10;;;;;;20995099;28;20064;-60
2022/09/03 21:22:59;;;;;;;3.95;2.17;;;25.90;32.10;;;;;;20994637;28;20078;-59
2022/09/03 21:33:28;;;;;;;3.45;1.83;;;25.90;31.60;;;;;;21008284;28;20413;-59
2022/09/03 21:43:56;;;;;;;5.25;2.20;;;25.80;31.60;;;;;;20992091;28;20057;-58
2022/09/03 21:54:06;;;;;;;4.45;2.22;;;25.60;32.00;;;;;;21009208;28;20097;-59
2022/09/03 22:04:08;;;;;;;5.15;2.78;;;25.70;32.20;;;;;;21008696;28;20059;-58
2022/09/03 22:14:14;;;;;;;4.07;1.97;;;25.50;32.90;;;;;;21008052;28;20412;-58
2022/09/03 22:24:32;;;;;;;3.22;2.30;;;25.40;32.10;;;;;;21006596;28;20087;-60
2022/09/03 22:34:59;;;;;;;4.07;1.83;;;25.30;32.30;;;;;;21006680;28;20048;-57
2022/09/03 22:45:32;;;;;;;3.88;2.10;;;25.00;32.40;;;;;;20981853;28;20053;-58
2022/09/03 22:55:36;;;;;;;3.45;1.60;;;25.00;32.40;;;;;;20990247;28;20438;-59
2022/09/03 23:06:10;;;;;;;5.97;3.10;;;24.70;33.10;;;;;;21004454;28;20052;-58
2022/09/03 23:16:47;;;;;;;7.32;2.28;;;24.70;33.00;;;;;;20992856;28;20084;-58
2022/09/03 23:26:52;;;;;;;5.53;1.88;;;24.60;32.60;;;;;;20985576;28;20059;-58
2022/09/03 23:37:37;;;;;;;3.88;2.05;;;24.50;33.50;;;;;;20983450;28;20100;-58
2022/09/03 23:48:04;;;;;;;2.70;1.75;;;24.50;33.00;;;;;;20745293;28;20046;-59
2022/09/03 23:58:20;;;;;;;2.50;1.55;;;24.40;32.40;;;;;;20744146;28;20541;-58
